Impacts METAR Board
IDs:

KSTL - St Louis/Lambert Int, MO, US

Updated at: 1300 UTC 23 Jun 2018
Potential Impact None Slight Moderate High
Time 23/01Z 23/02Z 23/03Z 23/04Z 23/05Z 23/06Z 23/07Z 23/08Z 23/09Z 23/10Z 23/11Z 23/12Z 23/13Z
Temp69 68 69 68 68 68 68 68 68 68 68 69 70
Dewpt65 65 65 65 65 65 65 64 64 64 65 65 65
Altim29.76 29.76 29.76 29.77 29.77 29.79 29.79 29.77 29.78 29.77 29.80 29.81 29.81
VIS10 10 10 10 10 10 10 10 10 10 10 10 10
CIG24 41 46 46 27 25 22 43 16 15 41 43 14
CoverOVCOVCOVCOVCOVCOVCOVCOVCOVCOVCBKNBKNOVC
FltCatMVFRVFRVFRVFRMVFRMVFRMVFRVFRMVFRMVFRVFRVFRMVFR
WX--------------------------
WDir300290340310320280260280260290240290310
WSpd5 5 5 4 4 5 9 6 6 4 5 3 4
WGst-- -- -- -- -- -- -- -- -- -- -- -- --
Raw hourly METARs
KSTL 230051Z 30005KT 10SM BKN024 OVC037 21/18 A2976 RMK AO2 SLP068 VCSH NW T02060183
KSTL 230151Z 29005KT 10SM FEW027 OVC041 20/18 A2976 RMK AO2 SLP068 T02000183
KSTL 230251Z 34005KT 10SM FEW022 SCT034 OVC046 21/18 A2976 RMK AO2 SLP068 T02060183 51004
KSTL 230351Z 31004KT 10SM SCT022 OVC046 20/18 A2977 RMK AO2 SLP072 T02000183
KSTL 230451Z 32004KT 10SM BKN027 OVC045 20/18 A2977 RMK AO2 SLP073 T02000183
KSTL 230551Z 28005KT 10SM BKN025 OVC046 20/18 A2979 RMK AO2 SLP080 T02000183 10217 20200 402280189 53006
KSTL 230651Z 26009KT 10SM FEW012 BKN022 OVC047 20/18 A2979 RMK AO2 SLP077 T02000183
KSTL 230759Z 28006KT 10SM FEW017 SCT023 OVC043 20/18 A2977 RMK AO2 T02000178
KSTL 230851Z 26006KT 10SM BKN016 OVC037 20/18 A2978 RMK AO2 SLP077 T02000178 55003
KSTL 230951Z 29004KT 10SM BKN015 OVC039 20/18 A2977 RMK AO2 SLP072 T02000178
KSTL 231051Z 24005KT 10SM FEW015 BKN041 20/18 A2980 RMK AO2 SLP083 T02000183
KSTL 231151Z 29003KT 10SM FEW015 BKN043 BKN250 21/18 A2981 RMK AO2 SLP085 70023 T02060183 10206 20200 53008
KSTL 231251Z 31004KT 10SM BKN014 OVC043 21/18 A2981 RMK AO2 SLP087 T02110183



Page loaded:  13:55 UTC  |   06:55 AM Pacific  |   07:55 AM Mountain  |   08:55 AM Central  |   09:55 AM Eastern

 

ADVISORIES

FORECASTS

FORECASTS

OBSERVATIONS

USER TOOLS

ABOUT US